createdAt,value
2019-02-19T00:00:00.963Z,3.70
2019-02-19T00:02:28.620Z,3.60
2019-02-19T00:04:56.193Z,3.60
2019-02-19T00:07:23.779Z,3.50
2019-02-19T00:09:52.154Z,3.40
2019-02-19T00:12:19.728Z,3.40
2019-02-19T00:14:47.308Z,3.40
2019-02-19T00:17:14.928Z,3.30
2019-02-19T00:19:42.858Z,3.30
2019-02-19T00:22:10.442Z,3.30
2019-02-19T00:24:38.059Z,3.20
2019-02-19T00:27:05.655Z,3.20
2019-02-19T00:29:33.225Z,3.30
2019-02-19T00:32:00.839Z,3.30
2019-02-19T00:34:28.418Z,3.30
2019-02-19T00:36:55.999Z,3.20
2019-02-19T00:39:23.607Z,3.20
2019-02-19T00:41:51.188Z,3.20
2019-02-19T00:44:18.773Z,3.10
2019-02-19T00:46:46.773Z,3.10
2019-02-19T00:49:14.349Z,3.10
2019-02-19T00:51:42.694Z,3.10
2019-02-19T00:54:10.305Z,3.00
2019-02-19T00:56:37.891Z,3.00
2019-02-19T00:59:05.465Z,3.10
2019-02-19T01:01:33.076Z,3.10
2019-02-19T01:04:01.423Z,3.00
2019-02-19T01:06:29.010Z,3.00
2019-02-19T01:08:56.645Z,2.90
2019-02-19T01:11:24.225Z,2.80
2019-02-19T01:13:51.799Z,2.80
2019-02-19T01:16:19.421Z,2.80
2019-02-19T01:18:46.993Z,2.90
2019-02-19T01:21:14.569Z,2.90
2019-02-19T01:23:42.195Z,2.90
2019-02-19T01:26:09.786Z,2.80
2019-02-19T01:28:37.368Z,2.90
2019-02-19T01:31:05.771Z,2.80
2019-02-19T01:33:33.348Z,2.80
2019-02-19T01:36:00.948Z,2.80
2019-02-19T01:38:28.585Z,2.70
2019-02-19T01:40:56.137Z,2.70
2019-02-19T01:43:23.718Z,2.70
2019-02-19T01:45:51.336Z,2.60
2019-02-19T01:48:18.922Z,2.60
2019-02-19T01:50:46.504Z,2.50
2019-02-19T01:53:14.119Z,2.70
2019-02-19T01:55:42.472Z,2.60
2019-02-19T01:58:10.042Z,2.60
2019-02-19T02:00:37.652Z,2.60
2019-02-19T02:03:05.232Z,2.60
2019-02-19T02:05:32.808Z,2.50
2019-02-19T02:08:00.420Z,2.50
2019-02-19T02:10:27.995Z,2.50
2019-02-19T02:12:55.582Z,2.40
2019-02-19T02:15:23.229Z,2.40
2019-02-19T02:17:50.811Z,2.40
2019-02-19T02:20:18.396Z,2.40
2019-02-19T02:22:46.013Z,2.40
2019-02-19T02:25:13.593Z,2.50
2019-02-19T02:27:41.180Z,2.60
2019-02-19T02:30:08.817Z,2.60
2019-02-19T02:32:36.540Z,2.60
2019-02-19T02:35:04.874Z,2.60
2019-02-19T02:37:32.504Z,2.60
2019-02-19T02:40:00.255Z,2.60
2019-02-19T02:42:27.672Z,2.50
2019-02-19T02:44:55.277Z,2.50
2019-02-19T02:47:22.853Z,2.50
2019-02-19T02:49:50.708Z,2.50
2019-02-19T02:52:18.318Z,2.50
2019-02-19T02:54:45.894Z,2.50
2019-02-19T02:57:13.481Z,2.50
2019-02-19T02:59:41.518Z,2.50
2019-02-19T03:02:09.098Z,2.50
2019-02-19T03:04:36.693Z,2.50
2019-02-19T03:07:19.357Z,2.60
2019-02-19T03:09:46.926Z,2.60
2019-02-19T03:12:15.276Z,2.70
2019-02-19T03:14:43.160Z,2.70
2019-02-19T03:17:10.742Z,2.90
2019-02-19T03:19:39.087Z,3.00
2019-02-19T03:22:06.708Z,3.00
2019-02-19T03:24:34.293Z,3.00
2019-02-19T03:27:01.875Z,2.90
2019-02-19T03:29:29.511Z,2.90
2019-02-19T03:31:57.082Z,2.80
2019-02-19T03:34:24.659Z,2.80
2019-02-19T03:36:53.540Z,2.70
2019-02-19T03:39:21.123Z,2.70
2019-02-19T03:41:48.699Z,2.70
2019-02-19T03:44:16.314Z,2.60
2019-02-19T03:46:43.898Z,2.60
2019-02-19T03:49:11.478Z,2.60
2019-02-19T03:51:39.118Z,2.60
2019-02-19T03:54:06.697Z,2.60
2019-02-19T03:56:34.273Z,2.60
2019-02-19T03:59:02.678Z,2.60
2019-02-19T04:01:30.254Z,2.60
2019-02-19T04:03:57.837Z,2.60
2019-02-19T04:06:25.446Z,2.60
2019-02-19T04:08:53.794Z,2.60
2019-02-19T04:11:21.371Z,2.60
2019-02-19T04:13:48.993Z,2.60
2019-02-19T04:16:21.294Z,2.70
2019-02-19T04:18:44.153Z,2.70
2019-02-19T04:21:11.775Z,2.80
2019-02-19T04:23:39.373Z,2.80
2019-02-19T04:26:06.961Z,2.90
2019-02-19T04:28:34.579Z,3.20
2019-02-19T04:31:02.175Z,3.20
2019-02-19T04:33:30.531Z,3.30
2019-02-19T04:35:58.149Z,3.30
2019-02-19T04:38:25.732Z,3.30
2019-02-19T04:40:53.708Z,3.50
2019-02-19T04:43:21.336Z,3.50
2019-02-19T04:45:48.946Z,3.50
2019-02-19T04:48:16.486Z,3.40
2019-02-19T04:50:44.096Z,3.30
2019-02-19T04:53:12.464Z,3.20
2019-02-19T04:55:40.079Z,3.20
2019-02-19T04:58:07.697Z,3.20
2019-02-19T05:00:35.271Z,3.20
2019-02-19T05:03:02.857Z,3.20
2019-02-19T05:05:30.891Z,3.20
2019-02-19T05:07:58.468Z,3.20
2019-02-19T05:10:26.819Z,3.20
2019-02-19T05:12:54.445Z,3.20
2019-02-19T05:15:22.031Z,3.20
2019-02-19T05:17:49.616Z,3.30
2019-02-19T05:20:17.236Z,3.30
2019-02-19T05:22:44.846Z,3.50
2019-02-19T05:25:12.435Z,3.70
2019-02-19T05:27:40.060Z,3.70
2019-02-19T05:30:07.645Z,3.70
2019-02-19T05:32:35.234Z,3.60
2019-02-19T05:35:02.847Z,3.50
2019-02-19T05:37:30.441Z,3.40
2019-02-19T05:39:58.026Z,3.40
2019-02-19T05:42:25.640Z,3.40
2019-02-19T05:44:53.993Z,3.40
2019-02-19T05:47:21.589Z,3.40
2019-02-19T05:49:49.204Z,3.40
2019-02-19T05:52:16.798Z,3.50
2019-02-19T05:54:44.384Z,3.50
2019-02-19T05:57:12.770Z,3.50
2019-02-19T05:59:40.350Z,3.50
2019-02-19T06:02:07.938Z,3.50
2019-02-19T06:04:35.571Z,3.60
2019-02-19T06:07:03.148Z,3.60
2019-02-19T06:09:31.024Z,3.60
2019-02-19T06:11:58.664Z,3.70
2019-02-19T06:14:26.236Z,3.70
2019-02-19T06:16:58.522Z,3.80
2019-02-19T06:19:21.439Z,3.80
2019-02-19T06:21:49.025Z,3.80
2019-02-19T06:24:16.610Z,3.70
2019-02-19T06:26:44.233Z,3.70
2019-02-19T06:29:11.825Z,3.70
2019-02-19T06:31:39.406Z,3.70
2019-02-19T06:34:07.385Z,3.70
2019-02-19T06:36:34.967Z,3.70
2019-02-19T06:39:02.539Z,3.70
2019-02-19T06:41:30.151Z,3.70
2019-02-19T06:43:57.794Z,3.70
2019-02-19T06:46:25.376Z,3.70
2019-02-19T06:48:52.988Z,3.70
2019-02-19T06:51:20.565Z,3.70
2019-02-19T06:53:48.159Z,3.80
2019-02-19T06:56:15.804Z,3.80
2019-02-19T06:58:43.399Z,3.80
2019-02-19T07:01:10.978Z,3.90
2019-02-19T07:03:54.301Z,4.10
2019-02-19T07:06:22.652Z,4.10
2019-02-19T07:08:50.243Z,4.10
2019-02-19T07:11:18.636Z,4.30
2019-02-19T07:13:46.213Z,4.30
2019-02-19T07:16:13.796Z,4.50
2019-02-19T07:18:41.442Z,4.50
2019-02-19T07:21:09.026Z,4.50
2019-02-19T07:23:36.597Z,4.60
2019-02-19T07:26:04.226Z,4.60
2019-02-19T07:28:31.805Z,4.60
2019-02-19T07:30:59.411Z,4.60
2019-02-19T07:33:27.040Z,4.60
2019-02-19T07:35:54.763Z,4.60
2019-02-19T07:38:23.122Z,4.80
2019-02-19T07:40:51.804Z,4.80
2019-02-19T07:43:19.401Z,4.80
2019-02-19T07:45:46.984Z,4.80
2019-02-19T07:48:14.611Z,4.80
2019-02-19T07:50:42.957Z,4.90
2019-02-19T07:53:10.551Z,4.90
2019-02-19T07:55:39.416Z,5.10
2019-02-19T07:58:06.988Z,5.00
2019-02-19T08:00:34.575Z,5.10
2019-02-19T08:03:02.625Z,5.10
2019-02-19T08:05:30.204Z,5.10
2019-02-19T08:07:58.554Z,5.10
2019-02-19T08:10:26.201Z,5.10
2019-02-19T08:12:53.796Z,5.10
2019-02-19T08:15:21.723Z,5.10
2019-02-19T08:17:49.825Z,5.10
2019-02-19T08:20:17.402Z,5.20
2019-02-19T08:22:44.983Z,5.20
2019-02-19T08:25:12.641Z,5.30
2019-02-19T08:27:40.223Z,5.40
2019-02-19T08:30:07.805Z,5.40
2019-02-19T08:32:35.450Z,5.50
2019-02-19T08:35:03.044Z,5.50
2019-02-19T08:37:30.623Z,5.50
2019-02-19T08:39:58.584Z,5.50
2019-02-19T08:42:26.186Z,5.50
2019-02-19T08:44:53.773Z,5.60
2019-02-19T08:47:22.190Z,5.60
2019-02-19T08:49:49.767Z,5.60
2019-02-19T08:52:18.781Z,5.80
2019-02-19T08:54:45.744Z,5.80
2019-02-19T08:57:13.323Z,5.80
2019-02-19T08:59:40.903Z,5.90
2019-02-19T09:02:09.024Z,5.90
2019-02-19T09:04:36.599Z,5.90
2019-02-19T09:07:04.185Z,5.90
2019-02-19T09:09:31.808Z,5.90
2019-02-19T09:12:00.174Z,6.00
2019-02-19T09:14:27.756Z,6.00
2019-02-19T09:16:55.386Z,6.00
2019-02-19T09:19:22.976Z,6.10
2019-02-19T09:21:50.564Z,6.10
2019-02-19T09:24:18.687Z,6.20
2019-02-19T09:26:46.268Z,6.40
2019-02-19T09:29:14.617Z,6.60
2019-02-19T09:31:42.500Z,6.60
2019-02-19T09:34:10.868Z,6.90
2019-02-19T09:36:38.462Z,6.90
2019-02-19T09:39:06.334Z,7.00
2019-02-19T09:41:33.919Z,7.20
2019-02-19T09:44:01.510Z,7.30
2019-02-19T09:46:29.154Z,7.40
2019-02-19T09:48:56.743Z,7.40
2019-02-19T09:51:24.331Z,7.50
2019-02-19T09:53:52.732Z,7.50
2019-02-19T09:56:20.311Z,7.50
2019-02-19T09:58:47.892Z,7.60
2019-02-19T10:01:15.980Z,7.60
2019-02-19T10:03:43.578Z,7.70
2019-02-19T10:06:11.176Z,7.80
2019-02-19T10:08:39.156Z,7.80
2019-02-19T10:11:06.731Z,7.90
2019-02-19T10:13:34.312Z,8.00
2019-02-19T10:16:02.700Z,8.10
2019-02-19T10:18:31.053Z,8.30
2019-02-19T10:20:59.782Z,8.30
2019-02-19T10:23:26.298Z,8.40
2019-02-19T10:25:53.896Z,8.50
2019-02-19T10:28:21.507Z,8.50
2019-02-19T10:30:49.208Z,8.60
2019-02-19T10:33:16.806Z,8.60
2019-02-19T10:35:44.388Z,8.90
2019-02-19T10:38:12.051Z,9.00
2019-02-19T10:40:40.004Z,9.10
2019-02-19T10:43:07.588Z,9.30
2019-02-19T10:45:35.576Z,9.40
2019-02-19T10:48:03.165Z,9.50
2019-02-19T10:50:30.745Z,9.50
2019-02-19T10:52:58.447Z,9.60
2019-02-19T10:55:25.978Z,9.70
2019-02-19T10:57:53.566Z,9.70
2019-02-19T11:00:21.209Z,9.80
2019-02-19T11:02:48.764Z,9.90
2019-02-19T11:05:16.340Z,9.90
2019-02-19T11:07:43.964Z,10.00
2019-02-19T11:10:14.115Z,10.00
2019-02-19T11:12:41.697Z,10.20
2019-02-19T11:15:10.496Z,10.30
2019-02-19T11:17:38.090Z,10.40
2019-02-19T11:20:20.511Z,10.40
2019-02-19T11:22:48.429Z,10.50
2019-02-19T11:25:15.999Z,10.50
2019-02-19T11:27:43.705Z,10.50
2019-02-19T11:30:17.220Z,10.50
2019-02-19T11:32:44.810Z,10.50
2019-02-19T11:35:12.471Z,10.50
2019-02-19T11:37:40.061Z,10.50
2019-02-19T11:40:08.410Z,10.50
2019-02-19T11:42:36.137Z,10.40
2019-02-19T11:45:03.738Z,10.50
2019-02-19T11:47:31.318Z,10.50
2019-02-19T11:49:59.804Z,10.60
2019-02-19T11:52:27.416Z,10.70
2019-02-19T11:54:54.994Z,10.90
2019-02-19T11:57:22.609Z,10.90
2019-02-19T11:59:50.981Z,11.10
2019-02-19T12:02:19.324Z,11.20
2019-02-19T12:04:46.981Z,11.20
2019-02-19T12:07:14.953Z,11.20
2019-02-19T12:09:42.537Z,11.30
2019-02-19T12:12:10.222Z,11.30
2019-02-19T12:14:38.572Z,11.40
2019-02-19T12:17:06.167Z,11.40
2019-02-19T12:19:34.575Z,11.70
2019-02-19T12:22:02.153Z,11.70
2019-02-19T12:24:29.731Z,11.60
2019-02-19T12:26:58.230Z,11.60
2019-02-19T12:29:25.816Z,11.50
2019-02-19T12:31:53.402Z,11.40
2019-02-19T12:34:22.118Z,11.40
2019-02-19T12:36:49.702Z,11.30
2019-02-19T12:39:17.280Z,11.40
2019-02-19T12:41:44.906Z,11.30
2019-02-19T12:44:12.546Z,11.40
2019-02-19T12:46:40.119Z,11.30
2019-02-19T12:49:07.745Z,11.30
2019-02-19T12:51:36.566Z,11.40
2019-02-19T12:54:04.178Z,11.50
2019-02-19T12:56:31.828Z,11.50
2019-02-19T12:58:59.412Z,11.50
2019-02-19T13:01:27.777Z,11.70
2019-02-19T13:03:55.941Z,11.70
2019-02-19T13:06:23.519Z,11.70
2019-02-19T13:08:51.865Z,11.70
2019-02-19T13:11:19.499Z,11.70
2019-02-19T13:13:47.095Z,11.70
2019-02-19T13:16:14.671Z,11.70
2019-02-19T13:18:42.298Z,11.70
2019-02-19T13:21:09.888Z,11.70
2019-02-19T13:23:37.474Z,11.80
2019-02-19T13:26:05.891Z,11.60
2019-02-19T13:28:33.468Z,11.60
2019-02-19T13:31:01.043Z,11.50
2019-02-19T13:33:28.667Z,11.40
2019-02-19T13:35:56.257Z,11.30
2019-02-19T13:38:23.838Z,11.30
2019-02-19T13:40:51.502Z,11.20
2019-02-19T13:43:19.079Z,11.20
2019-02-19T13:45:46.664Z,11.20
2019-02-19T13:48:15.063Z,11.20
2019-02-19T13:50:42.956Z,11.20
2019-02-19T13:53:14.151Z,11.20
2019-02-19T13:55:42.920Z,11.20
2019-02-19T13:58:10.494Z,11.20
2019-02-19T14:00:40.849Z,11.30
2019-02-19T14:03:08.472Z,11.20
2019-02-19T14:05:36.047Z,11.30
2019-02-19T14:08:04.393Z,11.30
2019-02-19T14:10:32.939Z,11.30
2019-02-19T14:13:00.497Z,11.30
2019-02-19T14:15:44.100Z,11.30
2019-02-19T14:18:11.682Z,11.30
2019-02-19T14:20:39.258Z,11.40
2019-02-19T14:23:09.630Z,11.40
2019-02-19T14:25:51.975Z,11.40
2019-02-19T14:28:22.987Z,11.60
2019-02-19T14:30:56.279Z,11.60
2019-02-19T14:33:29.802Z,11.60
2019-02-19T14:35:58.157Z,11.70
2019-02-19T14:38:43.944Z,11.70
2019-02-19T14:41:14.101Z,11.70
2019-02-19T14:43:47.713Z,11.90
2019-02-19T14:46:33.213Z,11.80
2019-02-19T14:49:18.794Z,11.80
2019-02-19T14:51:55.392Z,11.90
2019-02-19T14:54:26.101Z,11.90
2019-02-19T14:56:53.692Z,11.90
2019-02-19T14:59:23.895Z,11.90
2019-02-19T15:01:51.522Z,11.90
2019-02-19T15:04:21.920Z,11.90
2019-02-19T15:06:52.177Z,11.90
2019-02-19T15:09:37.847Z,11.80
2019-02-19T15:12:17.486Z,11.80
2019-02-19T15:14:53.796Z,12.00
2019-02-19T15:17:33.276Z,12.20
2019-02-19T15:20:00.902Z,12.30
2019-02-19T15:22:31.761Z,12.20
2019-02-19T15:25:11.299Z,12.20
2019-02-19T15:27:41.422Z,12.10
2019-02-19T15:30:09.030Z,12.10
2019-02-19T15:32:44.124Z,12.00
2019-02-19T15:35:30.038Z,11.90
2019-02-19T15:38:00.181Z,11.90
2019-02-19T15:40:40.464Z,11.80
2019-02-19T15:43:26.614Z,11.70
2019-02-19T15:46:09.189Z,11.70
2019-02-19T15:48:42.343Z,11.70
2019-02-19T15:51:27.845Z,11.60
2019-02-19T15:53:55.465Z,11.60
2019-02-19T15:56:25.588Z,11.60
2019-02-19T15:59:12.422Z,11.60
2019-02-19T16:01:58.576Z,11.50
2019-02-19T16:04:44.414Z,11.40
2019-02-19T16:07:14.573Z,11.40
2019-02-19T16:09:42.894Z,11.40
2019-02-19T16:12:19.466Z,11.40
2019-02-19T16:14:49.966Z,11.40
2019-02-19T16:17:35.868Z,11.40
2019-02-19T16:20:05.926Z,11.40
2019-02-19T16:22:52.924Z,11.40
2019-02-19T16:25:29.503Z,11.40
2019-02-19T16:27:57.158Z,11.40
2019-02-19T16:30:27.210Z,11.30
2019-02-19T16:32:54.793Z,11.20
2019-02-19T16:35:22.429Z,11.30
2019-02-19T16:38:07.848Z,11.20
2019-02-19T16:40:53.499Z,11.10
2019-02-19T16:43:21.902Z,10.90
2019-02-19T16:45:55.217Z,10.90
2019-02-19T16:48:31.708Z,10.80
2019-02-19T16:50:59.296Z,10.80
2019-02-19T16:53:41.823Z,10.70
2019-02-19T16:56:12.196Z,10.60
2019-02-19T16:58:45.653Z,10.50
2019-02-19T17:01:31.403Z,10.50
2019-02-19T17:04:04.692Z,10.50
2019-02-19T17:06:38.426Z,10.50
2019-02-19T17:09:09.594Z,10.60
2019-02-19T17:11:42.810Z,10.60
2019-02-19T17:14:10.397Z,10.50
2019-02-19T17:16:53.382Z,10.40
2019-02-19T17:19:23.687Z,10.30
2019-02-19T17:22:03.292Z,10.10
2019-02-19T17:24:36.852Z,10.00
2019-02-19T17:27:04.421Z,9.90
2019-02-19T17:29:32.121Z,9.80
2019-02-19T17:32:02.359Z,9.70
2019-02-19T17:34:30.726Z,9.70
2019-02-19T17:37:17.029Z,9.70
2019-02-19T17:39:47.453Z,9.70
2019-02-19T17:42:33.118Z,9.50
2019-02-19T17:45:06.418Z,9.40
2019-02-19T17:47:52.111Z,9.40
2019-02-19T17:50:38.722Z,9.20
2019-02-19T17:53:14.914Z,9.10
2019-02-19T17:55:56.603Z,9.00
2019-02-19T17:58:27.683Z,8.80
2019-02-19T18:01:13.393Z,8.80
2019-02-19T18:03:55.995Z,8.70
2019-02-19T18:06:32.467Z,8.60
2019-02-19T18:09:00.123Z,8.50
2019-02-19T18:11:46.000Z,8.40
2019-02-19T18:14:31.835Z,8.30
2019-02-19T18:17:02.154Z,8.20
2019-02-19T18:19:29.694Z,8.10
2019-02-19T18:21:57.348Z,8.00
2019-02-19T18:24:24.930Z,8.00
2019-02-19T18:26:52.504Z,7.90
2019-02-19T18:29:20.163Z,7.80
2019-02-19T18:31:47.743Z,7.70
2019-02-19T18:34:15.332Z,7.60
2019-02-19T18:36:43.324Z,7.70
2019-02-19T18:39:11.472Z,7.70
2019-02-19T18:41:40.095Z,7.60
2019-02-19T18:44:08.102Z,7.60
2019-02-19T18:46:35.685Z,7.50
2019-02-19T18:49:04.039Z,7.50
2019-02-19T18:51:32.055Z,7.50
2019-02-19T18:53:59.581Z,7.50
2019-02-19T18:56:27.162Z,7.40
2019-02-19T18:58:55.545Z,7.40
2019-02-19T19:01:23.119Z,7.40
2019-02-19T19:03:50.693Z,7.30
2019-02-19T19:06:18.421Z,7.30
2019-02-19T19:08:46.663Z,7.30
2019-02-19T19:11:14.253Z,7.30
2019-02-19T19:13:41.925Z,7.20
2019-02-19T19:16:10.281Z,7.00
2019-02-19T19:18:37.884Z,7.00
2019-02-19T19:21:07.821Z,6.90
2019-02-19T19:23:33.367Z,6.90
2019-02-19T19:26:00.953Z,6.80
2019-02-19T19:28:29.353Z,7.00
2019-02-19T19:30:56.940Z,7.00
2019-02-19T19:33:24.530Z,6.90
2019-02-19T19:35:53.447Z,7.00
2019-02-19T19:38:21.037Z,6.90
2019-02-19T19:40:48.632Z,6.70
2019-02-19T19:43:16.256Z,6.60
2019-02-19T19:45:44.609Z,6.40
2019-02-19T19:48:12.182Z,6.40
2019-02-19T19:50:40.570Z,6.30
2019-02-19T19:53:08.933Z,6.20
2019-02-19T19:55:36.512Z,6.20
2019-02-19T19:58:05.488Z,6.10
2019-02-19T20:00:33.162Z,6.10
2019-02-19T20:03:00.674Z,6.00
2019-02-19T20:05:28.299Z,6.00
2019-02-19T20:07:55.878Z,5.90
2019-02-19T20:10:23.462Z,5.80
2019-02-19T20:12:51.666Z,5.80
2019-02-19T20:15:19.258Z,5.70
2019-02-19T20:17:47.181Z,5.60
2019-02-19T20:20:14.785Z,5.50
2019-02-19T20:22:42.378Z,5.50
2019-02-19T20:25:09.970Z,5.40
2019-02-19T20:27:37.631Z,5.40
2019-02-19T20:30:07.687Z,5.30
2019-02-19T20:32:35.268Z,5.30
2019-02-19T20:35:02.961Z,5.40
2019-02-19T20:37:30.519Z,5.50
2019-02-19T20:39:58.092Z,5.40
2019-02-19T20:42:25.714Z,5.40
2019-02-19T20:44:53.617Z,5.40
2019-02-19T20:47:21.194Z,5.30
2019-02-19T20:49:48.823Z,5.20
2019-02-19T20:52:16.401Z,5.20
2019-02-19T20:54:44.037Z,5.20
2019-02-19T20:57:13.367Z,5.10
2019-02-19T20:59:40.947Z,5.00
2019-02-19T21:02:08.532Z,5.00
2019-02-19T21:04:36.160Z,5.00
2019-02-19T21:07:03.747Z,4.90
2019-02-19T21:09:31.323Z,4.90
2019-02-19T21:12:00.195Z,4.80
2019-02-19T21:14:27.769Z,4.80
2019-02-19T21:16:56.115Z,4.80
2019-02-19T21:19:23.796Z,4.80
2019-02-19T21:21:51.382Z,4.80
2019-02-19T21:24:18.959Z,4.70
2019-02-19T21:26:46.572Z,4.60
2019-02-19T21:29:14.157Z,4.50
2019-02-19T21:31:41.729Z,4.50
2019-02-19T21:34:10.397Z,4.30
2019-02-19T21:36:37.973Z,4.30
2019-02-19T21:39:06.327Z,4.20
2019-02-19T21:41:33.970Z,4.20
2019-02-19T21:44:01.555Z,4.20
2019-02-19T21:46:29.706Z,4.30
2019-02-19T21:48:57.315Z,4.30
2019-02-19T21:51:25.662Z,4.40
2019-02-19T21:53:53.252Z,4.40
2019-02-19T21:56:21.184Z,4.60
2019-02-19T21:58:48.761Z,4.80
2019-02-19T22:01:16.344Z,4.90
2019-02-19T22:03:44.021Z,4.90
2019-02-19T22:06:12.756Z,4.60
2019-02-19T22:08:40.343Z,4.60
2019-02-19T22:11:07.950Z,4.50
2019-02-19T22:13:35.564Z,4.40
2019-02-19T22:16:03.152Z,4.30
2019-02-19T22:18:30.769Z,4.20
2019-02-19T22:21:01.086Z,4.10
2019-02-19T22:23:28.680Z,4.00
2019-02-19T22:25:56.344Z,3.90
2019-02-19T22:28:24.001Z,3.90
2019-02-19T22:30:51.575Z,4.00
2019-02-19T22:33:19.218Z,4.10
2019-02-19T22:35:46.819Z,4.10
2019-02-19T22:38:14.397Z,4.00
2019-02-19T22:40:42.006Z,3.90
2019-02-19T22:43:09.599Z,3.80
2019-02-19T22:45:37.952Z,3.60
2019-02-19T22:48:05.580Z,3.60
2019-02-19T22:50:33.447Z,3.60
2019-02-19T22:53:01.034Z,3.50
2019-02-19T22:55:46.664Z,3.50
2019-02-19T22:58:15.003Z,3.40
2019-02-19T23:00:48.284Z,3.40
2019-02-19T23:03:16.372Z,3.40
2019-02-19T23:05:43.953Z,3.40
2019-02-19T23:08:11.527Z,3.30
2019-02-19T23:10:39.154Z,3.30
2019-02-19T23:13:06.731Z,3.30
2019-02-19T23:15:34.326Z,3.30
2019-02-19T23:18:01.971Z,3.30
2019-02-19T23:20:29.554Z,3.30
2019-02-19T23:22:57.139Z,3.40
2019-02-19T23:25:24.778Z,3.40
2019-02-19T23:27:52.374Z,3.30
2019-02-19T23:30:19.975Z,3.30
2019-02-19T23:32:47.564Z,3.20
2019-02-19T23:35:20.887Z,3.20
2019-02-19T23:37:48.465Z,3.20
2019-02-19T23:40:16.074Z,3.20
2019-02-19T23:42:43.657Z,3.10
2019-02-19T23:45:11.237Z,3.10
2019-02-19T23:47:38.863Z,2.90
2019-02-19T23:50:06.447Z,2.90
2019-02-19T23:52:34.018Z,2.80
2019-02-19T23:55:01.642Z,2.80
2019-02-19T23:57:29.987Z,2.70
2019-02-19T23:59:57.564Z,2.70
